Linton, Indiana
Current Conditions -  °F | °C
As of 8:15 PM on Friday 19 Dec 2014 (Local Time) from KDCY Reporting Station
Broken Clouds Broken Clouds  
Wind Chill: 31°   Ceiling: 2800
Heat Index: 31°   Visibility: 7mi
Dew Point: 26°   Wind: 3mph
Humidity: 83%   Direction: 80°E
Pressure: 30.28"   Gusts: NA
Location:  39.04°N, 87.17°W
Report Text: KDCY 200115Z AUTO 08003KT 7SM BKN028 M01/M03 A3028 RMK AO2 T10071032
Loading
Personal Weather Stations






























Interactive Weather Map New forecast layout! Learn more

10-Day Weather Forecast

Advertisements
Track Severe Weather on mobile